createdAt,value
2022-08-28T00:04:34.089Z,4.00
2022-08-28T00:07:02.359Z,5.32
2022-08-28T00:09:30.306Z,3.35
2022-08-28T00:14:26.028Z,3.55
2022-08-28T00:16:54.774Z,5.28
2022-08-28T00:19:24.201Z,9.00
2022-08-28T00:21:52.464Z,5.38
2022-08-28T00:24:20.455Z,4.43
2022-08-28T00:29:34.187Z,3.92
2022-08-28T00:32:02.181Z,4.63
2022-08-28T00:37:02.087Z,3.85
2022-08-28T00:39:29.947Z,4.18
2022-08-28T00:41:58.939Z,4.03
2022-08-28T00:44:29.142Z,3.55
2022-08-28T00:46:59.470Z,3.88
2022-08-28T00:49:37.666Z,3.58
2022-08-28T00:52:12.505Z,3.83
2022-08-28T00:54:58.493Z,4.25
2022-08-28T00:57:37.419Z,4.00
2022-08-28T01:02:35.201Z,4.32
2022-08-28T01:05:03.265Z,3.75
2022-08-28T01:07:30.934Z,4.82
2022-08-28T01:09:59.509Z,3.92
2022-08-28T01:12:29.911Z,4.00
2022-08-28T01:15:02.241Z,3.75
2022-08-28T01:17:33.179Z,4.30
2022-08-28T01:20:06.780Z,4.10
2022-08-28T01:22:59.391Z,3.78
2022-08-28T01:25:30.830Z,3.80
2022-08-28T01:27:58.975Z,3.85
2022-08-28T01:30:27.031Z,4.13
2022-08-28T01:32:56.909Z,4.00
2022-08-28T01:35:28.315Z,4.47
2022-08-28T01:37:56.986Z,3.72
2022-08-28T01:40:36.560Z,4.40
2022-08-28T01:43:17.089Z,3.80
2022-08-28T01:45:48.417Z,4.07
2022-08-28T01:48:16.764Z,4.03
2022-08-28T01:50:44.838Z,4.00
2022-08-28T01:55:43.565Z,4.55
2022-08-28T01:58:12.520Z,5.43
2022-08-28T02:00:40.514Z,5.97
2022-08-28T02:03:08.872Z,5.57
2022-08-28T02:05:37.600Z,5.25
2022-08-28T02:08:06.988Z,5.60
2022-08-28T02:10:37.213Z,5.95
2022-08-28T02:13:06.192Z,5.70
2022-08-28T02:15:36.062Z,5.85
2022-08-28T02:18:05.897Z,4.72
2022-08-28T02:20:34.297Z,4.70
2022-08-28T02:23:02.306Z,4.82
2022-08-28T02:27:58.340Z,4.40
2022-08-28T02:30:26.819Z,5.38
2022-08-28T02:32:54.779Z,5.60
2022-08-28T02:37:51.847Z,4.95
2022-08-28T02:40:23.995Z,5.25
2022-08-28T02:42:53.728Z,4.75
2022-08-28T02:45:21.682Z,6.00
2022-08-28T02:50:20.481Z,5.10
2022-08-28T02:52:48.373Z,5.45
2022-08-28T02:55:18.087Z,5.10
2022-08-28T02:57:47.978Z,4.70
2022-08-28T03:00:20.472Z,5.15
2022-08-28T03:02:49.605Z,5.75
2022-08-28T03:05:21.206Z,5.15
2022-08-28T03:07:50.073Z,5.63
2022-08-28T03:10:18.484Z,5.70
2022-08-28T03:12:46.665Z,6.13
2022-08-28T03:15:14.541Z,5.80
2022-08-28T03:17:42.622Z,5.00
2022-08-28T03:20:11.677Z,5.72
2022-08-28T03:22:58.826Z,5.90
2022-08-28T03:25:27.235Z,5.47
2022-08-28T03:27:55.257Z,5.60
2022-08-28T03:32:51.058Z,5.65
2022-08-28T03:35:19.240Z,5.78
2022-08-28T03:37:47.032Z,5.97
2022-08-28T03:40:15.398Z,6.15
2022-08-28T03:42:43.281Z,6.60
2022-08-28T03:45:21.623Z,5.35
2022-08-28T03:47:49.646Z,5.30
2022-08-28T03:50:19.109Z,4.70
2022-08-28T03:52:47.710Z,4.53
2022-08-28T03:57:43.909Z,5.00
2022-08-28T04:02:44.304Z,6.32
2022-08-28T04:05:14.116Z,5.43
2022-08-28T04:07:41.884Z,6.43
2022-08-28T04:10:10.218Z,6.05
2022-08-28T04:12:39.683Z,6.38
2022-08-28T04:15:08.239Z,6.55
2022-08-28T04:17:38.769Z,5.30
2022-08-28T04:20:08.170Z,5.10
2022-08-28T04:22:37.164Z,5.15
2022-08-28T04:25:06.740Z,6.10
2022-08-28T04:27:35.416Z,6.05
2022-08-28T04:30:04.173Z,6.68
2022-08-28T04:32:37.391Z,5.65
2022-08-28T04:35:08.377Z,5.20
2022-08-28T04:37:37.424Z,4.43
2022-08-28T04:40:08.792Z,5.03
2022-08-28T04:42:38.237Z,6.60
2022-08-28T04:45:06.927Z,6.97
2022-08-28T04:47:38.636Z,6.97
2022-08-28T04:50:07.735Z,6.65
2022-08-28T04:52:35.793Z,5.80
2022-08-28T04:55:04.585Z,5.82
2022-08-28T04:57:36.243Z,6.60
2022-08-28T05:00:07.185Z,6.05
2022-08-28T05:02:34.916Z,6.55
2022-08-28T05:05:03.533Z,8.68
2022-08-28T05:07:31.327Z,8.95
2022-08-28T05:09:59.080Z,9.98
2022-08-28T05:12:27.212Z,10.02
2022-08-28T05:17:22.969Z,7.43
2022-08-28T05:19:52.374Z,7.10
2022-08-28T05:22:20.352Z,8.10
2022-08-28T05:27:16.099Z,7.82
2022-08-28T05:29:43.682Z,7.03
2022-08-28T05:32:11.546Z,7.20
2022-08-28T05:34:39.198Z,8.00
2022-08-28T05:37:09.120Z,6.85
2022-08-28T05:39:37.533Z,7.00
2022-08-28T05:44:33.237Z,7.55
2022-08-28T05:47:00.906Z,9.05
2022-08-28T05:49:28.869Z,7.50
2022-08-28T05:51:57.126Z,7.65
2022-08-28T05:54:25.099Z,8.40
2022-08-28T05:59:20.546Z,9.45
2022-08-28T06:01:49.617Z,10.40
2022-08-28T06:04:23.112Z,9.23
2022-08-28T06:06:50.991Z,9.20
2022-08-28T06:09:28.973Z,9.45
2022-08-28T06:11:59.717Z,9.38
2022-08-28T06:14:28.023Z,7.70
2022-08-28T06:16:57.242Z,7.93
2022-08-28T06:19:27.412Z,9.20
2022-08-28T06:21:57.484Z,8.55
2022-08-28T06:24:26.258Z,8.10
2022-08-28T06:26:56.533Z,8.70
2022-08-28T06:29:27.931Z,8.57
2022-08-28T06:31:58.738Z,8.70
2022-08-28T06:34:27.953Z,8.43
2022-08-28T06:36:55.796Z,9.52
2022-08-28T06:39:23.827Z,9.00
2022-08-28T06:41:51.629Z,8.65
2022-08-28T06:44:21.571Z,8.73
2022-08-28T06:46:52.920Z,8.18
2022-08-28T06:49:21.114Z,8.55
2022-08-28T06:51:50.557Z,9.00
2022-08-28T06:54:22.707Z,8.93
2022-08-28T06:56:52.183Z,8.82
2022-08-28T06:59:20.448Z,8.85
2022-08-28T07:01:48.727Z,8.68
2022-08-28T07:04:16.550Z,8.07
2022-08-28T07:06:54.151Z,8.20
2022-08-28T07:09:24.357Z,8.23
2022-08-28T07:11:52.783Z,8.23
2022-08-28T07:14:20.633Z,8.18
2022-08-28T07:19:16.548Z,7.50
2022-08-28T07:21:45.568Z,7.95
2022-08-28T07:24:15.000Z,8.43
2022-08-28T07:26:44.272Z,7.63
2022-08-28T07:29:12.564Z,7.40
2022-08-28T07:31:43.661Z,7.45
2022-08-28T07:34:13.865Z,8.32
2022-08-28T07:36:42.660Z,8.05
2022-08-28T07:39:11.830Z,7.45
2022-08-28T07:41:43.025Z,6.13
2022-08-28T07:44:31.727Z,6.65
2022-08-28T07:47:04.313Z,6.78
2022-08-28T07:49:36.444Z,5.63
2022-08-28T07:52:06.567Z,5.45
2022-08-28T07:54:36.158Z,5.30
2022-08-28T07:57:05.637Z,5.82
2022-08-28T07:59:36.949Z,4.75
2022-08-28T08:02:05.948Z,4.75
2022-08-28T08:04:34.742Z,5.00
2022-08-28T08:07:04.117Z,5.43
2022-08-28T08:09:32.113Z,4.93
2022-08-28T08:14:27.969Z,4.72
2022-08-28T08:16:55.656Z,3.88
2022-08-28T08:19:23.368Z,4.57
2022-08-28T08:21:55.143Z,3.95
2022-08-28T08:24:28.472Z,3.83
2022-08-28T08:27:00.783Z,4.15
2022-08-28T08:29:34.373Z,3.70
2022-08-28T08:32:07.188Z,4.78
2022-08-28T08:34:38.668Z,4.50
2022-08-28T08:37:06.719Z,5.25
2022-08-28T08:42:05.243Z,4.07
2022-08-28T08:44:45.443Z,4.50
2022-08-28T08:47:27.735Z,3.75
2022-08-28T08:50:07.401Z,3.55
2022-08-28T08:53:04.806Z,3.90
2022-08-28T08:55:35.891Z,3.13
2022-08-28T08:58:13.100Z,2.90
2022-08-28T09:01:01.298Z,3.50
2022-08-28T09:03:53.947Z,3.60
2022-08-28T09:06:27.515Z,3.72
2022-08-28T09:09:02.169Z,2.97
2022-08-28T09:12:00.426Z,3.33
2022-08-28T09:14:50.514Z,3.38
2022-08-28T09:17:21.755Z,3.17
2022-08-28T09:19:49.995Z,3.08
2022-08-28T09:22:18.374Z,3.55
2022-08-28T09:24:46.363Z,3.22
2022-08-28T09:27:28.294Z,2.97
2022-08-28T09:30:08.419Z,2.72
2022-08-28T09:32:57.067Z,2.55
2022-08-28T09:35:29.241Z,2.97
2022-08-28T09:38:16.691Z,3.58
2022-08-28T09:43:33.712Z,2.37
2022-08-28T09:46:09.198Z,2.60
2022-08-28T09:48:39.688Z,2.70
2022-08-28T09:51:21.270Z,2.53
2022-08-28T09:53:54.849Z,2.63
2022-08-28T09:56:22.535Z,2.30
2022-08-28T09:59:13.755Z,3.10
2022-08-28T10:01:49.083Z,2.53
2022-08-28T10:04:44.815Z,2.38
2022-08-28T10:07:19.969Z,2.53
2022-08-28T10:10:20.586Z,2.70
2022-08-28T10:12:52.054Z,2.85
2022-08-28T10:16:04.983Z,2.60
2022-08-28T10:18:41.305Z,2.60
2022-08-28T10:21:35.150Z,2.92
2022-08-28T10:24:25.989Z,3.17
2022-08-28T10:27:03.634Z,2.72
2022-08-28T10:29:49.626Z,3.43
2022-08-28T10:32:30.966Z,2.90
2022-08-28T10:35:07.938Z,3.25
2022-08-28T10:38:13.381Z,3.20
2022-08-28T10:40:56.622Z,3.13
2022-08-28T10:43:37.295Z,3.40
2022-08-28T10:46:12.411Z,3.47
2022-08-28T10:48:53.511Z,3.30
2022-08-28T10:51:54.287Z,3.38
2022-08-28T10:54:45.250Z,5.82
2022-08-28T10:57:50.754Z,2.95
2022-08-28T11:00:24.404Z,3.20
2022-08-28T11:03:04.690Z,15.07
2022-08-28T11:05:38.289Z,16.00
2022-08-28T11:08:11.165Z,8.38
2022-08-28T11:10:49.494Z,4.40
2022-08-28T11:13:55.970Z,4.20
2022-08-28T11:16:46.522Z,21.05
2022-08-28T11:19:38.668Z,6.38
2022-08-28T11:22:21.909Z,5.60
2022-08-28T11:25:03.304Z,22.80
2022-08-28T11:27:37.711Z,24.58
2022-08-28T11:30:05.464Z,43.92
2022-08-28T11:37:46.291Z,10.27
2022-08-28T11:40:32.364Z,10.73
2022-08-28T11:43:16.115Z,3.28
2022-08-28T11:45:47.581Z,14.63
2022-08-28T11:48:33.881Z,6.60
2022-08-28T11:51:03.798Z,5.45
2022-08-28T11:53:46.607Z,3.80
2022-08-28T11:56:31.941Z,3.90
2022-08-28T11:59:17.872Z,4.60
2022-08-28T12:01:46.039Z,8.57
2022-08-28T12:04:17.641Z,6.10
2022-08-28T12:06:45.422Z,4.03
2022-08-28T12:09:39.171Z,3.90
2022-08-28T12:12:14.132Z,3.03
2022-08-28T12:14:41.765Z,3.25
2022-08-28T12:19:55.172Z,3.00
2022-08-28T12:22:26.942Z,3.78
2022-08-28T12:25:02.314Z,3.58
2022-08-28T12:27:32.053Z,3.65
2022-08-28T12:30:02.170Z,2.83
2022-08-28T12:32:41.832Z,2.90
2022-08-28T12:35:24.219Z,2.97
2022-08-28T12:37:55.004Z,4.63
2022-08-28T12:40:53.660Z,2.80
2022-08-28T12:43:35.805Z,2.92
2022-08-28T12:46:18.974Z,2.70
2022-08-28T12:48:55.522Z,3.38
2022-08-28T12:51:29.642Z,2.85
2022-08-28T12:54:00.471Z,3.40
2022-08-28T12:56:33.926Z,3.30
2022-08-28T12:59:37.830Z,2.53
2022-08-28T13:02:11.729Z,2.40
2022-08-28T13:04:45.699Z,2.35
2022-08-28T13:07:21.844Z,2.20
2022-08-28T13:09:53.066Z,2.40
2022-08-28T13:12:37.304Z,2.50
2022-08-28T13:15:46.404Z,2.55
2022-08-28T13:18:41.961Z,2.50
2022-08-28T13:21:34.061Z,2.47
2022-08-28T13:24:22.389Z,2.90
2022-08-28T13:27:03.689Z,2.80
2022-08-28T13:29:32.503Z,2.30
2022-08-28T13:32:10.090Z,2.47
2022-08-28T13:34:39.191Z,2.42
2022-08-28T13:37:48.118Z,2.88
2022-08-28T13:40:46.376Z,2.70
2022-08-28T13:43:11.016Z,2.60
2022-08-28T13:45:43.520Z,2.53
2022-08-28T13:48:14.143Z,2.47
2022-08-28T13:50:47.209Z,2.20
2022-08-28T13:53:18.072Z,2.10
2022-08-28T13:55:46.967Z,2.20
2022-08-28T13:58:15.874Z,2.00
2022-08-28T14:00:46.881Z,2.22
2022-08-28T14:03:33.462Z,1.80
2022-08-28T14:06:12.658Z,2.10
2022-08-28T14:08:45.185Z,2.08
2022-08-28T14:11:15.246Z,2.35
2022-08-28T14:13:46.965Z,1.98
2022-08-28T14:16:27.628Z,2.13
2022-08-28T14:18:55.458Z,2.30
2022-08-28T14:23:52.546Z,2.40
2022-08-28T14:26:20.467Z,2.60
2022-08-28T14:28:48.359Z,2.60
2022-08-28T14:31:16.241Z,2.30
2022-08-28T14:33:45.409Z,2.55
2022-08-28T14:36:25.047Z,2.40
2022-08-28T14:38:54.574Z,2.30
2022-08-28T14:41:24.107Z,2.50
2022-08-28T14:43:52.779Z,2.17
2022-08-28T14:46:23.737Z,2.15
2022-08-28T14:48:52.015Z,2.45
2022-08-28T14:51:19.885Z,2.50
2022-08-28T14:53:47.899Z,2.60
2022-08-28T14:56:15.556Z,2.17
2022-08-28T15:01:20.435Z,2.92
2022-08-28T15:03:48.225Z,2.38
2022-08-28T15:06:16.565Z,2.65
2022-08-28T15:08:44.472Z,2.50
2022-08-28T15:11:18.665Z,2.80
2022-08-28T15:13:48.682Z,2.30
2022-08-28T15:16:20.993Z,2.22
2022-08-28T15:18:48.859Z,2.60
2022-08-28T15:21:25.845Z,2.35
2022-08-28T15:23:55.605Z,2.00
2022-08-28T15:26:24.596Z,2.40
2022-08-28T15:28:55.946Z,2.22
2022-08-28T15:31:24.918Z,2.38
2022-08-28T15:33:52.905Z,2.40
2022-08-28T15:36:20.777Z,2.63
2022-08-28T15:39:07.433Z,2.00
2022-08-28T15:41:37.227Z,2.22
2022-08-28T15:44:05.473Z,2.40
2022-08-28T15:46:35.548Z,2.50
2022-08-28T15:49:07.779Z,2.30
2022-08-28T15:51:37.186Z,2.30
2022-08-28T15:54:05.775Z,2.47
2022-08-28T15:56:33.546Z,2.33
2022-08-28T15:59:01.188Z,2.20
2022-08-28T16:01:29.694Z,1.95
2022-08-28T16:03:57.334Z,2.22
2022-08-28T16:06:26.840Z,1.92
2022-08-28T16:08:54.901Z,2.20
2022-08-28T16:11:23.800Z,2.05
2022-08-28T16:13:52.026Z,2.20
2022-08-28T16:16:20.760Z,2.13
2022-08-28T16:18:48.570Z,2.13
2022-08-28T16:21:16.538Z,2.20
2022-08-28T16:23:44.342Z,1.92
2022-08-28T16:26:15.831Z,2.00
2022-08-28T16:28:44.940Z,1.80
2022-08-28T16:31:20.500Z,2.03
2022-08-28T16:33:49.750Z,2.13
2022-08-28T16:36:18.601Z,2.03
2022-08-28T16:38:49.762Z,2.10
2022-08-28T16:41:28.084Z,2.35
2022-08-28T16:43:56.460Z,2.10
2022-08-28T16:46:26.093Z,2.10
2022-08-28T16:48:54.940Z,2.17
2022-08-28T16:51:27.067Z,2.53
2022-08-28T16:53:55.612Z,2.38
2022-08-28T16:56:26.779Z,2.15
2022-08-28T16:58:55.742Z,2.33
2022-08-28T17:01:24.263Z,2.28
2022-08-28T17:03:54.727Z,2.40
2022-08-28T17:06:29.589Z,2.30
2022-08-28T17:08:58.512Z,2.40
2022-08-28T17:11:26.864Z,2.70
2022-08-28T17:13:55.761Z,2.40
2022-08-28T17:16:25.482Z,2.42
2022-08-28T17:18:53.350Z,2.50
2022-08-28T17:21:41.322Z,2.53
2022-08-28T17:24:13.023Z,2.60
2022-08-28T17:26:41.942Z,2.55
2022-08-28T17:29:10.120Z,2.50
2022-08-28T17:31:38.487Z,2.42
2022-08-28T17:34:07.477Z,2.67
2022-08-28T17:36:38.823Z,2.80
2022-08-28T17:39:14.043Z,3.00
2022-08-28T17:41:42.594Z,2.30
2022-08-28T17:44:10.862Z,2.63
2022-08-28T17:46:38.774Z,3.05
2022-08-28T17:49:07.901Z,3.13
2022-08-28T17:51:42.622Z,2.50
2022-08-28T17:54:14.008Z,2.60
2022-08-28T17:56:42.480Z,2.40
2022-08-28T17:59:12.056Z,2.47
2022-08-28T18:01:41.891Z,2.83
2022-08-28T18:04:09.833Z,2.63
2022-08-28T18:09:08.173Z,2.58
2022-08-28T18:11:37.134Z,2.90
2022-08-28T18:14:05.673Z,2.53
2022-08-28T18:16:35.377Z,2.63
2022-08-28T18:19:05.539Z,2.58
2022-08-28T18:21:34.012Z,2.63
2022-08-28T18:24:02.131Z,2.67
2022-08-28T18:26:30.147Z,2.53
2022-08-28T18:31:25.886Z,2.42
2022-08-28T18:33:54.459Z,2.70
2022-08-28T18:36:23.427Z,2.42
2022-08-28T18:38:51.617Z,2.70
2022-08-28T18:41:20.504Z,3.20
2022-08-28T18:43:48.772Z,3.47
2022-08-28T18:46:16.602Z,3.10
2022-08-28T18:53:43.475Z,3.10
2022-08-28T18:56:12.511Z,3.08
2022-08-28T18:58:41.911Z,2.85
2022-08-28T19:01:10.083Z,3.05
2022-08-28T19:03:37.932Z,3.00
2022-08-28T19:06:06.517Z,3.15
2022-08-28T19:08:36.924Z,2.90
2022-08-28T19:11:12.391Z,3.28
2022-08-28T19:13:41.994Z,3.45
2022-08-28T19:16:12.641Z,3.33
2022-08-28T19:18:40.551Z,3.22
2022-08-28T19:21:14.941Z,3.40
2022-08-28T19:23:49.344Z,3.38
2022-08-28T19:26:28.274Z,3.03
2022-08-28T19:28:57.037Z,5.00
2022-08-28T19:31:26.146Z,3.90
2022-08-28T19:33:54.311Z,3.50
2022-08-28T19:36:22.627Z,3.70
2022-08-28T19:38:50.981Z,3.78
2022-08-28T19:41:19.361Z,3.90
2022-08-28T19:43:47.336Z,3.55
2022-08-28T19:48:52.350Z,3.50
2022-08-28T19:51:23.514Z,3.97
2022-08-28T19:53:57.949Z,3.65
2022-08-28T19:56:28.283Z,3.88
2022-08-28T19:58:59.421Z,4.03
2022-08-28T20:01:30.097Z,3.83
2022-08-28T20:03:59.326Z,3.65
2022-08-28T20:06:27.900Z,3.70
2022-08-28T20:08:55.731Z,3.50
2022-08-28T20:11:25.422Z,4.40
2022-08-28T20:14:04.923Z,3.60
2022-08-28T20:16:36.220Z,4.25
2022-08-28T20:19:05.426Z,4.00
2022-08-28T20:21:37.011Z,3.72
2022-08-28T20:24:12.050Z,4.30
2022-08-28T20:26:40.227Z,4.55
2022-08-28T20:29:10.870Z,3.70
2022-08-28T20:31:41.214Z,3.63
2022-08-28T20:34:11.632Z,4.10
2022-08-28T20:36:40.088Z,3.90
2022-08-28T20:39:09.654Z,4.07
2022-08-28T20:41:39.103Z,3.92
2022-08-28T20:44:09.377Z,4.40
2022-08-28T20:46:41.289Z,4.65
2022-08-28T20:49:14.971Z,4.43
2022-08-28T20:51:53.805Z,4.90
2022-08-28T20:54:34.027Z,4.97
2022-08-28T20:57:06.054Z,4.43
2022-08-28T20:59:39.603Z,5.47
2022-08-28T21:02:15.828Z,5.25
2022-08-28T21:04:45.137Z,5.38
2022-08-28T21:07:17.664Z,5.18
2022-08-28T21:10:04.560Z,5.10
2022-08-28T21:12:36.026Z,5.05
2022-08-28T21:15:05.837Z,4.57
2022-08-28T21:17:33.995Z,4.80
2022-08-28T21:20:08.422Z,5.93
2022-08-28T21:22:36.584Z,5.65
2022-08-28T21:25:07.286Z,6.25
2022-08-28T21:27:35.667Z,5.88
2022-08-28T21:30:04.427Z,6.30
2022-08-28T21:32:34.202Z,6.00
2022-08-28T21:35:03.905Z,6.78
2022-08-28T21:37:32.014Z,6.85
2022-08-28T21:40:00.829Z,6.00
2022-08-28T21:42:28.849Z,6.70
2022-08-28T21:47:24.941Z,7.25
2022-08-28T21:49:55.674Z,8.00
2022-08-28T21:52:27.354Z,7.53
2022-08-28T21:55:00.396Z,6.93
2022-08-28T21:57:29.641Z,7.50
2022-08-28T21:59:58.547Z,8.20
2022-08-28T22:02:26.899Z,7.88
2022-08-28T22:04:54.653Z,7.63
2022-08-28T22:07:22.596Z,7.60
2022-08-28T22:09:50.874Z,7.65
2022-08-28T22:12:19.146Z,7.78
2022-08-28T22:14:47.270Z,7.78
2022-08-28T22:17:15.431Z,8.00
2022-08-28T22:19:43.429Z,7.38
2022-08-28T22:22:33.866Z,6.97
2022-08-28T22:25:01.877Z,7.53
2022-08-28T22:30:00.260Z,7.40
2022-08-28T22:32:28.211Z,7.32
2022-08-28T22:34:57.320Z,7.15
2022-08-28T22:37:25.963Z,6.82
2022-08-28T22:39:54.031Z,7.28
2022-08-28T22:42:23.178Z,8.75
2022-08-28T22:44:51.315Z,8.43
2022-08-28T22:47:19.517Z,8.77
2022-08-28T22:49:47.396Z,8.90
2022-08-28T22:54:43.584Z,8.13
2022-08-28T22:57:11.950Z,8.70
2022-08-28T22:59:40.189Z,8.57
2022-08-28T23:04:39.848Z,9.63
2022-08-28T23:07:08.145Z,8.68
2022-08-28T23:09:37.150Z,9.00
2022-08-28T23:12:07.517Z,8.85
2022-08-28T23:14:35.522Z,9.55
2022-08-28T23:17:03.249Z,9.25
2022-08-28T23:19:32.330Z,9.05
2022-08-28T23:22:00.501Z,9.00
2022-08-28T23:31:52.109Z,8.85
2022-08-28T23:34:20.196Z,8.48
2022-08-28T23:36:48.099Z,8.98
2022-08-28T23:41:44.052Z,9.23
2022-08-28T23:44:12.076Z,8.82
2022-08-28T23:46:41.148Z,8.63
2022-08-28T23:49:10.554Z,8.77
2022-08-28T23:51:38.870Z,8.30
2022-08-28T23:54:07.919Z,9.02
2022-08-28T23:56:36.749Z,8.43
2022-08-28T23:59:07.325Z,8.43
